createdAt,value
2018-05-24T00:01:14.959Z,19.71
2018-05-24T00:02:14.969Z,19.55
2018-05-24T00:04:07.884Z,19.61
2018-05-24T00:05:07.909Z,19.55
2018-05-24T00:07:01.840Z,19.54
2018-05-24T00:08:01.852Z,19.55
2018-05-24T00:09:54.759Z,19.36
2018-05-24T00:10:54.789Z,19.43
2018-05-24T00:12:48.210Z,19.39
2018-05-24T00:13:48.217Z,19.39
2018-05-24T00:15:44.127Z,19.37
2018-05-24T00:16:44.151Z,19.33
2018-05-24T00:18:37.085Z,19.31
2018-05-24T00:19:37.094Z,19.25
2018-05-24T00:21:30.023Z,19.40
2018-05-24T00:22:30.033Z,19.33
2018-05-24T00:24:22.944Z,19.21
2018-05-24T00:25:22.971Z,19.28
2018-05-24T00:27:15.963Z,19.28
2018-05-24T00:28:15.912Z,19.28
2018-05-24T00:30:08.820Z,19.26
2018-05-24T00:31:08.848Z,19.32
2018-05-24T00:33:01.776Z,19.33
2018-05-24T00:34:01.780Z,19.26
2018-05-24T00:35:54.697Z,19.23
2018-05-24T00:36:54.723Z,19.32
2018-05-24T00:38:47.718Z,19.26
2018-05-24T00:39:47.660Z,19.23
2018-05-24T00:41:40.598Z,19.26
2018-05-24T00:42:40.601Z,19.28
2018-05-24T00:44:35.014Z,19.39
2018-05-24T00:45:35.039Z,19.32
2018-05-24T00:47:28.465Z,19.37
2018-05-24T00:48:28.471Z,19.33
2018-05-24T00:50:21.385Z,19.36
2018-05-24T00:51:21.414Z,19.32
2018-05-24T00:53:14.345Z,19.31
2018-05-24T00:54:14.350Z,19.31
2018-05-24T00:56:07.261Z,19.31
2018-05-24T00:57:07.286Z,19.19
2018-05-24T00:59:00.711Z,19.28
2018-05-24T01:00:00.716Z,19.25
2018-05-24T01:01:53.648Z,19.31
2018-05-24T01:02:53.664Z,19.22
2018-05-24T01:04:47.064Z,19.28
2018-05-24T01:05:47.089Z,19.28
2018-05-24T01:07:40.043Z,19.31
2018-05-24T01:08:40.031Z,19.36
2018-05-24T01:10:32.953Z,19.37
2018-05-24T01:11:32.974Z,19.33
2018-05-24T01:13:25.903Z,19.48
2018-05-24T01:14:25.914Z,19.36
2018-05-24T01:16:18.822Z,19.33
2018-05-24T01:17:18.846Z,19.37
2018-05-24T01:19:11.783Z,19.50
2018-05-24T01:20:11.789Z,19.44
2018-05-24T01:22:04.718Z,19.46
2018-05-24T01:23:04.728Z,19.43
2018-05-24T01:24:57.638Z,19.48
2018-05-24T01:25:57.666Z,19.39
2018-05-24T01:27:50.609Z,19.47
2018-05-24T01:28:50.609Z,19.46
2018-05-24T01:30:43.522Z,19.50
2018-05-24T01:31:43.548Z,19.39
2018-05-24T01:33:36.971Z,19.46
2018-05-24T01:34:36.978Z,19.37
2018-05-24T01:36:29.892Z,19.40
2018-05-24T01:37:29.922Z,19.33
2018-05-24T01:39:22.860Z,19.37
2018-05-24T01:40:22.866Z,19.31
2018-05-24T01:42:15.801Z,19.36
2018-05-24T01:43:15.809Z,19.50
2018-05-24T01:45:08.720Z,19.48
2018-05-24T01:46:08.750Z,19.46
2018-05-24T01:48:02.172Z,19.48
2018-05-24T01:49:02.177Z,19.40
2018-05-24T01:50:55.587Z,19.51
2018-05-24T01:51:55.610Z,19.37
2018-05-24T01:53:48.545Z,19.37
2018-05-24T01:54:48.553Z,19.37
2018-05-24T01:56:41.467Z,19.37
2018-05-24T01:57:41.491Z,19.29
2018-05-24T01:59:37.428Z,19.33
2018-05-24T02:00:37.435Z,19.36
2018-05-24T02:02:30.368Z,19.40
2018-05-24T02:03:30.377Z,19.29
2018-05-24T02:05:23.293Z,19.44
2018-05-24T02:06:23.317Z,19.36
2018-05-24T02:08:17.738Z,19.37
2018-05-24T02:09:17.745Z,19.46
2018-05-24T02:11:10.664Z,19.37
2018-05-24T02:12:10.700Z,19.31
2018-05-24T02:14:03.621Z,19.29
2018-05-24T02:15:03.627Z,19.22
2018-05-24T02:16:57.038Z,19.22
2018-05-24T02:17:57.067Z,19.23
2018-05-24T02:19:49.994Z,19.22
2018-05-24T02:20:50.005Z,19.21
2018-05-24T02:22:42.931Z,19.13
2018-05-24T02:23:42.946Z,19.11
2018-05-24T02:25:36.846Z,19.08
2018-05-24T02:26:36.870Z,19.08
2018-05-24T02:28:31.296Z,19.18
2018-05-24T02:29:31.305Z,19.07
2018-05-24T02:31:24.216Z,19.04
2018-05-24T02:32:24.239Z,18.99
2018-05-24T02:34:17.175Z,18.95
2018-05-24T02:35:17.183Z,18.95
2018-05-24T02:37:10.105Z,18.98
2018-05-24T02:38:10.123Z,18.99
2018-05-24T02:40:03.066Z,19.08
2018-05-24T02:41:03.062Z,19.13
2018-05-24T02:42:55.994Z,19.10
2018-05-24T02:43:56.004Z,19.08
2018-05-24T02:45:48.915Z,19.06
2018-05-24T02:46:48.944Z,18.98
2018-05-24T02:48:41.871Z,19.06
2018-05-24T02:49:41.887Z,18.95
2018-05-24T02:51:34.792Z,18.82
2018-05-24T02:52:34.820Z,18.95
2018-05-24T02:54:28.239Z,18.94
2018-05-24T02:55:28.247Z,18.87
2018-05-24T02:57:21.656Z,18.98
2018-05-24T02:58:21.679Z,18.88
2018-05-24T03:00:14.610Z,18.99
2018-05-24T03:01:14.616Z,18.91
2018-05-24T03:03:07.547Z,18.85
2018-05-24T03:04:07.553Z,18.81
2018-05-24T03:06:00.469Z,18.75
2018-05-24T03:07:00.498Z,18.76
2018-05-24T03:08:53.423Z,18.67
2018-05-24T03:09:53.428Z,18.66
2018-05-24T03:11:46.848Z,18.55
2018-05-24T03:12:46.873Z,18.58
2018-05-24T03:14:39.806Z,18.57
2018-05-24T03:15:39.816Z,18.63
2018-05-24T03:17:32.723Z,18.76
2018-05-24T03:18:32.747Z,18.78
2018-05-24T03:20:25.749Z,18.75
2018-05-24T03:21:25.689Z,18.75
2018-05-24T03:23:18.618Z,18.82
2018-05-24T03:24:18.623Z,18.82
2018-05-24T03:26:11.535Z,18.85
2018-05-24T03:27:11.559Z,18.90
2018-05-24T03:29:04.495Z,18.87
2018-05-24T03:30:04.501Z,18.95
2018-05-24T03:31:57.415Z,19.06
2018-05-24T03:32:57.437Z,19.06
2018-05-24T03:34:50.417Z,19.00
2018-05-24T03:35:50.378Z,19.00
2018-05-24T03:37:43.291Z,19.00
2018-05-24T03:38:43.311Z,19.00
2018-05-24T03:40:36.739Z,18.98
2018-05-24T03:41:36.746Z,19.10
2018-05-24T03:43:29.676Z,18.95
2018-05-24T03:44:29.679Z,18.99
2018-05-24T03:46:24.090Z,18.99
2018-05-24T03:47:24.115Z,18.95
2018-05-24T03:49:17.043Z,18.94
2018-05-24T03:50:17.048Z,18.94
2018-05-24T03:52:10.029Z,19.02
2018-05-24T03:53:09.991Z,19.02
2018-05-24T03:55:02.921Z,19.16
2018-05-24T03:56:02.931Z,19.25
2018-05-24T03:57:55.844Z,19.32
2018-05-24T03:58:55.869Z,19.32
2018-05-24T04:00:48.798Z,19.25
2018-05-24T04:01:48.811Z,19.29
2018-05-24T04:03:41.737Z,19.31
2018-05-24T04:04:41.747Z,19.21
2018-05-24T04:06:34.672Z,19.10
2018-05-24T04:07:34.694Z,19.08
2018-05-24T04:09:28.119Z,18.99
2018-05-24T04:10:28.126Z,19.08
2018-05-24T04:12:21.041Z,19.13
2018-05-24T04:13:21.068Z,19.18
2018-05-24T04:15:14.000Z,18.98
2018-05-24T04:16:14.007Z,18.95
2018-05-24T04:18:06.919Z,18.94
2018-05-24T04:19:06.949Z,19.02
2018-05-24T04:21:00.382Z,18.92
2018-05-24T04:22:00.378Z,19.00
2018-05-24T04:23:53.313Z,18.98
2018-05-24T04:24:53.321Z,18.91
2018-05-24T04:26:46.236Z,18.84
2018-05-24T04:27:46.260Z,18.73
2018-05-24T04:29:39.691Z,18.82
2018-05-24T04:30:39.697Z,18.81
2018-05-24T04:32:32.608Z,18.81
2018-05-24T04:33:32.632Z,18.87
2018-05-24T04:35:25.563Z,18.87
2018-05-24T04:36:25.568Z,18.92
2018-05-24T04:38:18.482Z,18.90
2018-05-24T04:39:18.510Z,18.84
2018-05-24T04:41:11.934Z,18.92
2018-05-24T04:42:11.939Z,18.94
2018-05-24T04:44:04.873Z,19.00
2018-05-24T04:45:04.883Z,18.98
2018-05-24T04:46:57.797Z,18.88
2018-05-24T04:47:57.825Z,18.94
2018-05-24T04:49:51.250Z,18.90
2018-05-24T04:50:51.258Z,18.84
2018-05-24T04:52:44.669Z,19.08
2018-05-24T04:53:44.690Z,19.26
2018-05-24T04:55:37.627Z,19.32
2018-05-24T04:56:37.635Z,19.33
2018-05-24T04:58:30.556Z,19.50
2018-05-24T04:59:30.581Z,19.56
2018-05-24T05:01:23.515Z,19.74
2018-05-24T05:02:23.525Z,19.77
2018-05-24T05:04:17.455Z,19.92
2018-05-24T05:05:17.466Z,19.99
2018-05-24T05:07:10.378Z,20.23
2018-05-24T05:08:10.406Z,20.23
2018-05-24T05:10:03.836Z,20.51
2018-05-24T05:11:03.840Z,20.47
2018-05-24T05:12:56.759Z,20.41
2018-05-24T05:13:56.786Z,20.51
2018-05-24T05:15:49.729Z,20.50
2018-05-24T05:16:49.734Z,20.58
2018-05-24T05:18:42.655Z,20.55
2018-05-24T05:19:42.679Z,20.64
2018-05-24T05:21:36.111Z,20.42
2018-05-24T05:22:36.122Z,20.39
2018-05-24T05:24:29.553Z,20.29
2018-05-24T05:25:29.564Z,20.23
2018-05-24T05:27:22.479Z,20.17
2018-05-24T05:28:22.504Z,20.24
2018-05-24T05:30:15.451Z,20.17
2018-05-24T05:31:15.453Z,20.16
2018-05-24T05:33:09.866Z,20.11
2018-05-24T05:34:09.891Z,20.14
2018-05-24T05:36:02.828Z,20.24
2018-05-24T05:37:02.840Z,20.14
2018-05-24T05:38:55.757Z,20.31
2018-05-24T05:39:55.784Z,20.31
2018-05-24T05:41:48.720Z,20.50
2018-05-24T05:42:48.728Z,20.59
2018-05-24T05:44:41.664Z,20.87
2018-05-24T05:45:41.671Z,20.98
2018-05-24T05:47:34.596Z,21.25
2018-05-24T05:48:34.623Z,21.19
2018-05-24T05:50:27.564Z,21.47
2018-05-24T05:51:27.568Z,21.72
2018-05-24T05:53:20.492Z,22.22
2018-05-24T05:54:20.522Z,22.27
2018-05-24T05:56:13.457Z,22.20
2018-05-24T05:57:13.470Z,22.25
2018-05-24T05:59:06.392Z,22.25
2018-05-24T06:00:06.421Z,22.30
2018-05-24T06:01:59.913Z,22.00
2018-05-24T06:02:59.866Z,21.84
2018-05-24T06:04:52.814Z,21.91
2018-05-24T06:05:52.824Z,21.86
2018-05-24T06:07:45.745Z,22.18
2018-05-24T06:08:45.773Z,22.31
2018-05-24T06:10:38.740Z,22.35
2018-05-24T06:11:38.728Z,22.33
2018-05-24T06:13:31.658Z,22.33
2018-05-24T06:14:31.687Z,22.37
2018-05-24T06:16:24.634Z,22.31
2018-05-24T06:17:24.639Z,22.33
2018-05-24T06:19:18.070Z,22.42
2018-05-24T06:20:18.101Z,22.43
2018-05-24T06:22:11.048Z,22.37
2018-05-24T06:23:11.053Z,22.31
2018-05-24T06:25:04.019Z,22.24
2018-05-24T06:26:04.013Z,22.27
2018-05-24T06:27:56.947Z,22.28
2018-05-24T06:28:56.977Z,22.28
2018-05-24T06:30:49.918Z,22.22
2018-05-24T06:31:49.930Z,22.28
2018-05-24T06:33:42.854Z,22.25
2018-05-24T06:34:42.883Z,22.22
2018-05-24T06:36:36.321Z,22.22
2018-05-24T06:37:36.332Z,22.21
2018-05-24T06:39:29.256Z,22.25
2018-05-24T06:40:29.330Z,22.22
2018-05-24T06:42:22.233Z,22.22
2018-05-24T06:43:22.242Z,22.30
2018-05-24T06:45:16.676Z,22.39
2018-05-24T06:46:16.682Z,22.39
2018-05-24T06:48:09.612Z,22.46
2018-05-24T06:49:09.633Z,22.67
2018-05-24T06:51:02.587Z,22.52
2018-05-24T06:52:02.586Z,22.64
2018-05-24T06:53:55.513Z,22.55
2018-05-24T06:54:55.540Z,22.67
2018-05-24T06:56:48.491Z,22.76
2018-05-24T06:57:48.497Z,22.67
2018-05-24T06:59:41.919Z,22.54
2018-05-24T07:00:41.944Z,22.49
2018-05-24T07:02:34.890Z,22.42
2018-05-24T07:03:34.896Z,22.31
2018-05-24T07:05:27.848Z,22.22
2018-05-24T07:06:27.850Z,22.14
2018-05-24T07:08:20.776Z,22.31
2018-05-24T07:09:20.804Z,22.21
2018-05-24T07:11:13.751Z,22.22
2018-05-24T07:12:13.757Z,22.17
2018-05-24T07:14:06.680Z,21.96
2018-05-24T07:15:06.709Z,22.02
2018-05-24T07:16:59.655Z,21.99
2018-05-24T07:17:59.662Z,21.92
2018-05-24T07:19:52.587Z,21.98
2018-05-24T07:20:52.616Z,22.20
2018-05-24T07:22:45.557Z,22.33
2018-05-24T07:23:45.567Z,22.42
2018-05-24T07:25:38.516Z,22.47
2018-05-24T07:26:38.533Z,22.47
2018-05-24T07:28:32.448Z,22.80
2018-05-24T07:29:32.476Z,22.88
2018-05-24T07:31:25.425Z,23.01
2018-05-24T07:32:25.430Z,22.97
2018-05-24T07:34:18.362Z,22.98
2018-05-24T07:35:18.387Z,23.04
2018-05-24T07:37:11.335Z,23.07
2018-05-24T07:38:11.339Z,22.94
2018-05-24T07:40:04.268Z,22.92
2018-05-24T07:41:04.299Z,22.97
2018-05-24T07:42:57.253Z,22.85
2018-05-24T07:43:57.257Z,22.85
2018-05-24T07:45:50.198Z,22.90
2018-05-24T07:46:50.207Z,22.83
2018-05-24T07:48:43.133Z,22.88
2018-05-24T07:49:43.161Z,22.91
2018-05-24T07:51:36.103Z,23.07
2018-05-24T07:52:36.112Z,23.01
2018-05-24T07:54:29.089Z,23.27
2018-05-24T07:55:29.096Z,23.32
2018-05-24T07:57:22.038Z,23.38
2018-05-24T07:58:22.046Z,23.39
2018-05-24T08:00:14.971Z,23.33
2018-05-24T08:01:14.999Z,23.36
2018-05-24T08:03:07.949Z,23.05
2018-05-24T08:04:07.953Z,22.83
2018-05-24T08:06:00.892Z,22.83
2018-05-24T08:07:00.902Z,22.79
2018-05-24T08:08:54.322Z,22.83
2018-05-24T08:09:54.350Z,22.86
2018-05-24T08:11:47.296Z,22.92
2018-05-24T08:12:47.305Z,22.90
2018-05-24T08:14:40.234Z,22.95
2018-05-24T08:15:40.257Z,22.92
2018-05-24T08:17:33.199Z,22.83
2018-05-24T08:18:33.208Z,22.82
2018-05-24T08:20:26.133Z,22.73
2018-05-24T08:21:26.161Z,22.91
2018-05-24T08:23:19.593Z,23.04
2018-05-24T08:24:19.604Z,23.22
2018-05-24T08:26:13.541Z,23.16
2018-05-24T08:27:13.549Z,23.01
2018-05-24T08:29:06.470Z,22.92
2018-05-24T08:30:06.498Z,22.91
2018-05-24T08:31:59.493Z,22.92
2018-05-24T08:32:59.458Z,23.10
2018-05-24T08:34:52.418Z,23.15
2018-05-24T08:35:52.410Z,23.20
2018-05-24T08:37:45.349Z,23.46
2018-05-24T08:38:45.373Z,23.46
2018-05-24T08:40:38.382Z,23.46
2018-05-24T08:41:38.451Z,23.42
2018-05-24T08:43:31.248Z,23.48
2018-05-24T08:44:31.260Z,23.36
2018-05-24T08:46:24.199Z,22.91
2018-05-24T08:47:24.225Z,22.97
2018-05-24T08:49:17.704Z,22.85
2018-05-24T08:50:17.381Z,22.94
2018-05-24T08:52:10.276Z,23.01
2018-05-24T08:53:10.286Z,23.07
2018-05-24T08:55:03.209Z,23.19
2018-05-24T08:56:03.372Z,23.25
2018-05-24T08:57:56.885Z,23.19
2018-05-24T08:58:56.880Z,23.17
2018-05-24T09:00:49.761Z,23.32
2018-05-24T09:01:49.792Z,23.47
2018-05-24T09:03:42.730Z,23.51
2018-05-24T09:04:42.741Z,23.54
2018-05-24T09:06:35.682Z,23.70
2018-05-24T09:07:35.690Z,23.87
2018-05-24T09:09:28.614Z,23.87
2018-05-24T09:10:28.642Z,24.15
2018-05-24T09:12:21.743Z,24.32
2018-05-24T09:13:21.934Z,24.46
2018-05-24T09:15:15.014Z,24.52
2018-05-24T09:16:15.042Z,24.43
2018-05-24T09:18:08.499Z,24.25
2018-05-24T09:19:08.501Z,24.20
2018-05-24T09:21:01.426Z,24.24
2018-05-24T09:22:01.452Z,24.28
2018-05-24T09:23:54.396Z,24.46
2018-05-24T09:24:54.405Z,24.64
2018-05-24T09:26:47.354Z,24.50
2018-05-24T09:27:47.360Z,24.43
2018-05-24T09:29:40.286Z,24.52
2018-05-24T09:30:40.315Z,24.55
2018-05-24T09:32:33.263Z,24.76
2018-05-24T09:33:33.274Z,24.71
2018-05-24T09:35:26.192Z,24.76
2018-05-24T09:36:26.220Z,24.91
2018-05-24T09:38:20.658Z,24.84
2018-05-24T09:39:20.668Z,24.90
2018-05-24T09:41:13.596Z,24.65
2018-05-24T09:42:13.649Z,24.58
2018-05-24T09:44:06.569Z,24.52
2018-05-24T09:45:06.574Z,24.52
2018-05-24T09:46:59.517Z,24.43
2018-05-24T09:47:59.526Z,24.40
2018-05-24T09:49:52.452Z,24.13
2018-05-24T09:50:52.479Z,24.21
2018-05-24T09:52:45.481Z,24.16
2018-05-24T09:53:45.472Z,24.15
2018-05-24T09:55:38.398Z,23.87
2018-05-24T09:56:38.425Z,23.78
2018-05-24T09:58:31.375Z,23.65
2018-05-24T09:59:31.380Z,23.65
2018-05-24T10:01:24.304Z,23.72
2018-05-24T10:02:24.332Z,23.66
2018-05-24T10:04:17.283Z,23.79
2018-05-24T10:05:17.293Z,23.83
2018-05-24T10:07:10.262Z,24.05
2018-05-24T10:08:10.256Z,24.12
2018-05-24T10:10:03.237Z,24.32
2018-05-24T10:11:03.236Z,24.42
2018-05-24T10:12:56.184Z,24.65
2018-05-24T10:13:56.199Z,24.83
2018-05-24T10:15:49.119Z,24.91
2018-05-24T10:16:49.146Z,24.90
2018-05-24T10:18:42.091Z,25.24
2018-05-24T10:19:42.099Z,25.39
2018-05-24T10:21:35.025Z,25.55
2018-05-24T10:22:35.054Z,25.57
2018-05-24T10:24:28.007Z,25.58
2018-05-24T10:25:28.015Z,25.62
2018-05-24T10:27:20.958Z,25.47
2018-05-24T10:28:20.968Z,25.50
2018-05-24T10:30:14.391Z,25.38
2018-05-24T10:31:14.425Z,25.54
2018-05-24T10:33:07.372Z,25.65
2018-05-24T10:34:07.385Z,25.76
2018-05-24T10:36:00.805Z,25.85
2018-05-24T10:37:00.833Z,25.92
2018-05-24T10:38:53.812Z,25.98
2018-05-24T10:39:53.825Z,25.98
2018-05-24T10:41:46.752Z,25.77
2018-05-24T10:42:46.779Z,25.69
2018-05-24T10:44:39.726Z,25.67
2018-05-24T10:45:39.740Z,25.87
2018-05-24T10:47:34.206Z,25.64
2018-05-24T10:48:34.218Z,25.61
2018-05-24T10:50:27.144Z,25.51
2018-05-24T10:51:27.174Z,25.40
2018-05-24T10:53:20.124Z,25.17
2018-05-24T10:54:20.129Z,25.03
2018-05-24T10:56:13.063Z,24.58
2018-05-24T10:57:13.094Z,24.42
2018-05-24T10:59:06.535Z,24.27
2018-05-24T11:00:06.546Z,24.28
2018-05-24T11:01:59.475Z,24.20
2018-05-24T11:02:59.512Z,24.10
2018-05-24T11:04:52.451Z,24.08
2018-05-24T11:05:52.457Z,24.10
2018-05-24T11:07:45.401Z,24.35
2018-05-24T11:08:45.410Z,24.35
2018-05-24T11:10:38.338Z,24.42
2018-05-24T11:11:38.444Z,24.52
2018-05-24T11:13:31.312Z,24.52
2018-05-24T11:14:31.323Z,24.60
2018-05-24T11:16:24.274Z,24.65
2018-05-24T11:17:24.282Z,24.64
2018-05-24T11:19:17.226Z,24.68
2018-05-24T11:20:17.236Z,24.69
2018-05-24T11:22:10.666Z,24.73
2018-05-24T11:23:10.743Z,24.67
2018-05-24T11:25:03.637Z,24.64
2018-05-24T11:26:03.643Z,24.57
2018-05-24T11:27:56.655Z,24.50
2018-05-24T11:28:56.615Z,24.69
2018-05-24T11:30:49.521Z,24.58
2018-05-24T11:31:49.573Z,24.50
2018-05-24T11:33:42.490Z,24.64
2018-05-24T11:34:42.503Z,24.47
2018-05-24T11:36:35.427Z,24.55
2018-05-24T11:37:35.456Z,24.37
2018-05-24T11:39:28.896Z,24.28
2018-05-24T11:40:28.904Z,24.47
2018-05-24T11:42:22.348Z,24.53
2018-05-24T11:43:22.519Z,24.55
2018-05-24T11:45:15.411Z,24.61
2018-05-24T11:46:15.367Z,24.55
2018-05-24T11:48:08.784Z,24.45
2018-05-24T11:49:08.842Z,24.45
2018-05-24T11:51:01.722Z,24.27
2018-05-24T11:52:01.830Z,24.32
2018-05-24T11:53:54.733Z,24.34
2018-05-24T11:54:54.698Z,24.32
2018-05-24T11:56:48.127Z,24.25
2018-05-24T11:57:48.160Z,24.05
2018-05-24T11:59:41.105Z,23.80
2018-05-24T12:00:41.113Z,23.73
2018-05-24T12:02:34.571Z,23.51
2018-05-24T12:03:34.561Z,23.33
2018-05-24T12:05:27.516Z,22.98
2018-05-24T12:06:27.514Z,22.80
2018-05-24T12:08:20.466Z,22.70
2018-05-24T12:09:20.465Z,22.77
2018-05-24T12:11:13.410Z,22.64
2018-05-24T12:12:13.454Z,22.67
2018-05-24T12:14:06.370Z,22.65
2018-05-24T12:15:13.614Z,22.67
2018-05-24T12:17:08.001Z,22.67
2018-05-24T12:18:07.991Z,22.65
2018-05-24T12:20:00.991Z,22.65
2018-05-24T12:21:00.944Z,22.77
2018-05-24T12:22:46.783Z,22.83
2018-05-24T12:23:46.798Z,22.91
2018-05-24T12:25:39.718Z,23.01
2018-05-24T12:26:39.779Z,23.07
2018-05-24T12:28:32.743Z,23.17
2018-05-24T12:29:32.672Z,23.16
2018-05-24T12:31:25.610Z,23.17
2018-05-24T12:32:25.627Z,23.04
2018-05-24T12:34:18.574Z,23.10
2018-05-24T12:35:18.625Z,22.92
2018-05-24T12:37:11.540Z,23.00
2018-05-24T12:38:11.538Z,23.09
2018-05-24T12:40:05.969Z,23.16
2018-05-24T12:41:05.981Z,23.07
2018-05-24T12:42:58.902Z,22.80
2018-05-24T12:43:58.969Z,22.68
2018-05-24T12:45:51.921Z,22.51
2018-05-24T12:46:51.876Z,22.42
2018-05-24T12:48:44.825Z,22.21
2018-05-24T12:49:44.859Z,22.25
2018-05-24T12:51:37.767Z,22.12
2018-05-24T12:52:37.797Z,22.10
2018-05-24T12:54:30.850Z,22.18
2018-05-24T12:55:30.763Z,22.25
2018-05-24T12:57:23.697Z,22.37
2018-05-24T12:58:23.751Z,22.24
2018-05-24T13:00:16.660Z,22.58
2018-05-24T13:01:16.660Z,22.65
2018-05-24T13:03:11.105Z,22.77
2018-05-24T13:04:11.137Z,22.82
2018-05-24T13:06:04.212Z,22.83
2018-05-24T13:07:04.161Z,22.68
2018-05-24T13:08:57.083Z,22.77
2018-05-24T13:09:57.077Z,22.55
2018-05-24T13:11:50.843Z,22.28
2018-05-24T13:12:50.915Z,22.25
2018-05-24T13:14:43.824Z,22.10
2018-05-24T13:15:43.841Z,22.02
2018-05-24T13:17:37.232Z,21.79
2018-05-24T13:18:37.261Z,21.68
2018-05-24T13:20:30.252Z,21.54
2018-05-24T13:21:30.232Z,21.50
2018-05-24T13:23:23.140Z,21.50
2018-05-24T13:24:23.223Z,21.59
2018-05-24T13:26:17.590Z,21.56
2018-05-24T13:27:17.601Z,21.65
2018-05-24T13:29:11.535Z,21.64
2018-05-24T13:30:11.547Z,21.56
2018-05-24T13:32:04.965Z,21.58
2018-05-24T13:33:04.996Z,21.61
2018-05-24T13:34:58.430Z,21.32
2018-05-24T13:35:58.436Z,21.35
2018-05-24T13:37:51.365Z,21.31
2018-05-24T13:38:51.418Z,21.27
2018-05-24T13:40:44.377Z,21.27
2018-05-24T13:41:44.350Z,21.25
2018-05-24T13:43:37.246Z,21.34
2018-05-24T13:44:37.274Z,21.28
2018-05-24T13:46:30.723Z,21.43
2018-05-24T13:47:30.726Z,21.50
2018-05-24T13:49:24.158Z,21.65
2018-05-24T13:50:24.214Z,21.68
2018-05-24T13:52:17.601Z,21.91
2018-05-24T13:53:17.604Z,21.94
2018-05-24T13:55:10.544Z,21.99
2018-05-24T13:56:10.553Z,21.99
2018-05-24T13:58:03.541Z,22.21
2018-05-24T13:59:03.503Z,22.33
2018-05-24T14:00:56.938Z,22.37
2018-05-24T14:01:56.963Z,22.46
2018-05-24T14:03:50.358Z,22.60
2018-05-24T14:04:50.386Z,22.68
2018-05-24T14:06:43.822Z,22.77
2018-05-24T14:07:43.834Z,22.77
2018-05-24T14:09:37.263Z,22.94
2018-05-24T14:10:37.277Z,23.05
2018-05-24T14:12:30.196Z,23.10
2018-05-24T14:13:30.234Z,23.15
2018-05-24T14:15:23.225Z,23.10
2018-05-24T14:16:23.232Z,23.07
2018-05-24T14:18:16.160Z,23.20
2018-05-24T14:19:16.187Z,23.15
2018-05-24T14:21:09.139Z,23.07
2018-05-24T14:22:09.181Z,23.00
2018-05-24T14:24:02.620Z,22.86
2018-05-24T14:25:02.644Z,22.65
2018-05-24T14:26:55.584Z,22.79
2018-05-24T14:27:55.599Z,22.76
2018-05-24T14:29:49.530Z,22.67
2018-05-24T14:30:49.546Z,22.70
2018-05-24T14:32:44.955Z,22.58
2018-05-24T14:33:44.986Z,22.54
2018-05-24T14:35:37.931Z,22.52
2018-05-24T14:36:37.936Z,22.52
2018-05-24T14:38:30.858Z,22.36
2018-05-24T14:39:30.886Z,22.31
2018-05-24T14:41:24.319Z,22.31
2018-05-24T14:42:24.334Z,22.24
2018-05-24T14:44:22.244Z,22.35
2018-05-24T14:45:22.269Z,22.36
2018-05-24T14:47:15.300Z,22.49
2018-05-24T14:48:15.217Z,22.57
2018-05-24T14:50:08.162Z,22.43
2018-05-24T14:51:08.169Z,22.33
2018-05-24T14:53:01.119Z,22.30
2018-05-24T14:54:01.122Z,22.35
2018-05-24T14:55:54.065Z,22.25
2018-05-24T14:56:54.070Z,22.25
2018-05-24T14:58:47.487Z,22.52
2018-05-24T14:59:47.558Z,22.55
2018-05-24T15:01:40.454Z,22.72
2018-05-24T15:02:40.461Z,22.83
2018-05-24T15:04:33.878Z,22.86
2018-05-24T15:05:33.912Z,22.97
2018-05-24T15:07:26.898Z,23.12
2018-05-24T15:08:26.857Z,23.22
2018-05-24T15:10:20.300Z,23.31
2018-05-24T15:11:20.358Z,23.17
2018-05-24T15:13:13.792Z,23.23
2018-05-24T15:14:13.756Z,23.23
2018-05-24T15:16:06.721Z,23.12
2018-05-24T15:17:06.707Z,23.04
2018-05-24T15:18:59.633Z,22.98
2018-05-24T15:19:59.666Z,23.01
2018-05-24T15:21:54.100Z,22.86
2018-05-24T15:22:54.104Z,22.92
2018-05-24T15:24:47.027Z,22.94
2018-05-24T15:25:47.054Z,22.86
2018-05-24T15:27:40.489Z,22.80
2018-05-24T15:28:40.504Z,22.80
2018-05-24T15:30:33.445Z,22.70
2018-05-24T15:31:33.499Z,22.75
2018-05-24T15:33:26.446Z,22.88
2018-05-24T15:34:26.451Z,23.02
2018-05-24T15:36:19.339Z,23.22
2018-05-24T15:37:19.348Z,23.25
2018-05-24T15:39:12.271Z,23.35
2018-05-24T15:40:12.298Z,23.38
2018-05-24T15:42:05.244Z,23.25
2018-05-24T15:43:05.250Z,23.40
2018-05-24T15:44:58.179Z,23.51
2018-05-24T15:45:58.206Z,23.53
2018-05-24T15:47:51.148Z,23.46
2018-05-24T15:48:51.241Z,23.50
2018-05-24T15:50:44.593Z,23.46
2018-05-24T15:51:44.606Z,23.46
2018-05-24T15:53:37.529Z,23.50
2018-05-24T15:54:37.557Z,23.48
2018-05-24T15:56:30.503Z,23.50
2018-05-24T15:57:30.508Z,23.55
2018-05-24T15:59:23.925Z,23.28
2018-05-24T16:00:23.953Z,23.38
2018-05-24T16:02:17.388Z,23.33
2018-05-24T16:03:17.402Z,23.43
2018-05-24T16:05:10.319Z,23.40
2018-05-24T16:06:10.352Z,23.35
2018-05-24T16:08:03.788Z,23.36
2018-05-24T16:09:03.793Z,23.36
2018-05-24T16:10:56.741Z,23.22
2018-05-24T16:11:56.809Z,23.20
2018-05-24T16:13:50.233Z,23.19
2018-05-24T16:14:50.202Z,23.20
2018-05-24T16:16:43.149Z,23.16
2018-05-24T16:17:43.151Z,23.19
2018-05-24T16:19:36.077Z,23.17
2018-05-24T16:20:36.104Z,23.19
2018-05-24T16:22:30.039Z,23.15
2018-05-24T16:23:30.047Z,23.20
2018-05-24T16:25:22.970Z,23.19
2018-05-24T16:26:22.997Z,23.19
2018-05-24T16:28:15.945Z,23.28
2018-05-24T16:29:15.946Z,23.23
2018-05-24T16:31:08.886Z,23.38
2018-05-24T16:32:08.896Z,23.33
2018-05-24T16:34:10.937Z,23.43
2018-05-24T16:35:09.520Z,23.39
2018-05-24T16:36:55.281Z,23.32
2018-05-24T16:37:55.289Z,23.33
2018-05-24T16:39:48.259Z,23.46
2018-05-24T16:40:48.239Z,23.42
2018-05-24T16:42:41.190Z,23.55
2018-05-24T16:43:41.185Z,23.57
2018-05-24T16:45:34.111Z,23.50
2018-05-24T16:46:34.137Z,23.48
2018-05-24T16:48:27.085Z,23.50
2018-05-24T16:49:27.088Z,23.48
2018-05-24T16:51:21.026Z,23.33
2018-05-24T16:52:21.035Z,23.39
2018-05-24T16:54:13.991Z,23.38
2018-05-24T16:55:13.984Z,23.23
2018-05-24T16:57:06.932Z,23.38
2018-05-24T16:58:06.938Z,23.48
2018-05-24T17:00:00.414Z,23.43
2018-05-24T17:01:00.381Z,23.31
2018-05-24T17:02:53.320Z,23.22
2018-05-24T17:03:53.340Z,23.23
2018-05-24T17:05:46.746Z,23.16
2018-05-24T17:06:46.774Z,23.20
2018-05-24T17:08:39.724Z,23.04
2018-05-24T17:09:39.727Z,22.98
2018-05-24T17:11:32.672Z,22.94
2018-05-24T17:12:32.738Z,22.92
2018-05-24T17:14:27.096Z,22.73
2018-05-24T17:15:27.123Z,22.67
2018-05-24T17:17:21.123Z,22.76
2018-05-24T17:18:21.068Z,22.83
2018-05-24T17:20:14.484Z,22.77
2018-05-24T17:21:14.513Z,22.86
2018-05-24T17:23:07.945Z,22.92
2018-05-24T17:24:07.952Z,22.85
2018-05-24T17:26:01.442Z,22.86
2018-05-24T17:27:01.401Z,22.85
2018-05-24T17:28:54.573Z,22.83
2018-05-24T17:29:54.368Z,22.72
2018-05-24T17:31:48.860Z,22.86
2018-05-24T17:32:48.858Z,22.86
2018-05-24T17:34:42.299Z,22.91
2018-05-24T17:35:42.326Z,22.91
2018-05-24T17:37:36.292Z,22.92
2018-05-24T17:38:36.300Z,22.92
2018-05-24T17:40:29.331Z,22.95
2018-05-24T17:41:29.360Z,22.94
2018-05-24T17:43:22.405Z,22.97
2018-05-24T17:44:22.417Z,22.97
2018-05-24T17:46:15.516Z,23.01
2018-05-24T17:47:15.485Z,22.86
2018-05-24T17:49:08.519Z,22.94
2018-05-24T17:50:08.527Z,22.85
2018-05-24T17:52:03.009Z,22.85
2018-05-24T17:53:03.016Z,22.94
2018-05-24T17:54:56.049Z,23.05
2018-05-24T17:55:56.077Z,22.91
2018-05-24T17:57:49.121Z,23.04
2018-05-24T17:58:49.130Z,22.92
2018-05-24T18:00:42.170Z,22.86
2018-05-24T18:01:42.200Z,22.80
2018-05-24T18:03:35.642Z,22.83
2018-05-24T18:04:35.651Z,22.82
2018-05-24T18:06:28.587Z,22.79
2018-05-24T18:07:28.608Z,22.68
2018-05-24T18:09:21.656Z,22.65
2018-05-24T18:10:21.671Z,22.62
2018-05-24T18:12:16.108Z,22.68
2018-05-24T18:13:16.114Z,22.57
2018-05-24T18:15:09.081Z,22.45
2018-05-24T18:16:09.109Z,22.30
2018-05-24T18:18:03.079Z,22.24
2018-05-24T18:19:03.085Z,22.25
2018-05-24T18:20:56.016Z,22.24
2018-05-24T18:21:56.041Z,22.31
2018-05-24T18:23:50.525Z,22.25
2018-05-24T18:24:50.529Z,22.33
2018-05-24T18:26:46.047Z,22.20
2018-05-24T18:27:46.051Z,22.20
2018-05-24T18:29:38.975Z,22.24
2018-05-24T18:30:38.998Z,22.22
2018-05-24T18:32:33.478Z,22.06
2018-05-24T18:33:33.488Z,22.02
2018-05-24T18:35:26.421Z,22.02